createdAt,value
2024-01-16T00:00:19.822Z,9.40
2024-01-16T00:03:17.947Z,9.70
2024-01-16T00:06:16.174Z,10.45
2024-01-16T00:09:14.495Z,10.73
2024-01-16T00:12:12.676Z,10.70
2024-01-16T00:15:11.160Z,11.95
2024-01-16T00:18:10.174Z,11.43
2024-01-16T00:21:08.262Z,12.00
2024-01-16T00:24:06.700Z,14.03
2024-01-16T00:27:06.244Z,12.23
2024-01-16T00:30:06.061Z,12.52
2024-01-16T00:33:04.577Z,12.07
2024-01-16T00:36:02.733Z,13.40
2024-01-16T00:39:00.885Z,12.57
2024-01-16T00:41:59.227Z,14.17
2024-01-16T00:44:57.414Z,14.10
2024-01-16T00:47:55.654Z,13.80
2024-01-16T00:50:54.057Z,13.67
2024-01-16T00:53:52.472Z,14.23
2024-01-16T00:56:50.697Z,16.35
2024-01-16T00:59:49.241Z,15.37
2024-01-16T01:02:47.465Z,16.20
2024-01-16T01:05:45.797Z,15.33
2024-01-16T01:08:43.960Z,16.27
2024-01-16T01:11:42.326Z,15.80
2024-01-16T01:14:40.516Z,17.27
2024-01-16T01:17:38.877Z,14.43
2024-01-16T01:20:37.013Z,14.57
2024-01-16T01:23:35.279Z,14.32
2024-01-16T01:26:33.365Z,14.23
2024-01-16T01:29:31.537Z,14.40
2024-01-16T01:32:29.676Z,15.10
2024-01-16T01:35:28.282Z,15.15
2024-01-16T01:38:26.405Z,14.48
2024-01-16T01:41:24.582Z,14.27
2024-01-16T01:44:22.737Z,13.83
2024-01-16T01:47:21.524Z,15.77
2024-01-16T01:50:20.181Z,14.50
2024-01-16T01:53:18.424Z,14.27
2024-01-16T01:56:18.778Z,13.57
2024-01-16T01:59:19.937Z,14.65
2024-01-16T02:02:18.901Z,15.15
2024-01-16T02:05:17.658Z,14.10
2024-01-16T02:08:15.765Z,14.20
2024-01-16T02:11:14.103Z,14.48
2024-01-16T02:14:12.342Z,15.33
2024-01-16T02:17:10.538Z,13.37
2024-01-16T02:20:09.292Z,12.50
2024-01-16T02:23:09.346Z,11.77
2024-01-16T02:26:07.400Z,11.87
2024-01-16T02:29:06.467Z,11.88
2024-01-16T02:32:05.080Z,11.70
2024-01-16T02:35:03.580Z,12.40
2024-01-16T02:38:02.273Z,12.17
2024-01-16T02:41:00.415Z,12.50
2024-01-16T02:43:58.440Z,12.37
2024-01-16T02:46:56.684Z,10.93
2024-01-16T02:49:54.769Z,12.93
2024-01-16T02:52:52.955Z,12.40
2024-01-16T02:55:51.113Z,13.65
2024-01-16T02:58:49.242Z,14.33
2024-01-16T03:01:47.383Z,14.05
2024-01-16T03:04:45.745Z,13.97
2024-01-16T03:07:43.778Z,13.53
2024-01-16T03:10:41.937Z,13.97
2024-01-16T03:13:39.948Z,11.97
2024-01-16T03:16:38.064Z,11.77
2024-01-16T03:19:36.028Z,12.57
2024-01-16T03:22:34.169Z,12.30
2024-01-16T03:25:32.236Z,12.53
2024-01-16T03:28:30.460Z,12.63
2024-01-16T03:31:28.893Z,12.40
2024-01-16T03:34:27.215Z,11.73
2024-01-16T03:37:25.486Z,12.80
2024-01-16T03:40:23.597Z,12.53
2024-01-16T03:43:21.688Z,13.93
2024-01-16T03:46:19.839Z,13.33
2024-01-16T03:49:18.036Z,13.07
2024-01-16T03:52:16.315Z,14.38
2024-01-16T03:55:14.675Z,14.73
2024-01-16T03:58:13.620Z,15.17
2024-01-16T04:01:12.006Z,13.83
2024-01-16T04:04:10.363Z,14.38
2024-01-16T04:07:08.803Z,14.87
2024-01-16T04:10:09.102Z,15.20
2024-01-16T04:13:07.972Z,14.97
2024-01-16T04:16:06.438Z,13.87
2024-01-16T04:19:05.143Z,15.17
2024-01-16T04:22:03.568Z,15.30
2024-01-16T04:25:01.627Z,21.40
2024-01-16T04:28:02.953Z,28.37
2024-01-16T04:31:03.301Z,34.72
2024-01-16T04:34:01.584Z,37.60
2024-01-16T04:36:59.651Z,44.03
2024-01-16T04:39:59.783Z,42.90
2024-01-16T04:42:57.794Z,37.72
2024-01-16T04:45:56.004Z,36.63
2024-01-16T04:48:54.260Z,35.13
2024-01-16T04:51:52.525Z,32.30
2024-01-16T04:54:50.578Z,31.93
2024-01-16T04:57:48.729Z,33.30
2024-01-16T05:00:47.589Z,33.50
2024-01-16T05:03:45.879Z,33.00
2024-01-16T05:06:44.086Z,33.03
2024-01-16T05:09:42.233Z,31.92
2024-01-16T05:12:41.094Z,32.20
2024-01-16T05:15:39.235Z,30.90
2024-01-16T05:18:37.476Z,30.65
2024-01-16T05:21:35.822Z,31.85
2024-01-16T05:24:33.849Z,30.67
2024-01-16T05:27:32.276Z,29.13
2024-01-16T05:30:30.403Z,28.90
2024-01-16T05:33:28.651Z,28.90
2024-01-16T05:36:28.801Z,26.13
2024-01-16T05:39:26.977Z,25.60
2024-01-16T05:42:24.992Z,27.42
2024-01-16T05:45:23.165Z,29.05
2024-01-16T05:48:21.316Z,27.10
2024-01-16T05:51:20.197Z,27.15
2024-01-16T05:54:18.283Z,29.15
2024-01-16T05:57:16.406Z,29.88
2024-01-16T06:00:15.051Z,30.63
2024-01-16T06:03:13.248Z,28.73
2024-01-16T06:06:11.425Z,26.70
2024-01-16T06:09:09.598Z,27.30
2024-01-16T06:12:09.912Z,27.00
2024-01-16T06:15:08.578Z,25.67
2024-01-16T06:18:06.769Z,26.75
2024-01-16T06:21:05.632Z,26.92
2024-01-16T06:24:03.655Z,28.20
2024-01-16T06:27:01.851Z,27.25
2024-01-16T06:30:00.044Z,25.80
2024-01-16T06:32:58.344Z,27.98
2024-01-16T06:35:57.780Z,31.10
2024-01-16T06:38:56.096Z,28.38
2024-01-16T06:41:54.418Z,30.05
2024-01-16T06:44:52.659Z,30.33
2024-01-16T06:47:52.093Z,27.42
2024-01-16T06:50:50.415Z,28.77
2024-01-16T06:53:48.558Z,31.02
2024-01-16T06:56:47.947Z,30.17
2024-01-16T06:59:46.053Z,30.92
2024-01-16T07:02:45.372Z,28.42
2024-01-16T07:05:44.481Z,30.52
2024-01-16T07:08:42.953Z,28.75
2024-01-16T07:11:44.514Z,29.58
2024-01-16T07:14:42.764Z,30.27
2024-01-16T07:17:41.404Z,29.40
2024-01-16T07:20:39.729Z,28.70
2024-01-16T07:23:37.754Z,30.65
2024-01-16T07:26:36.167Z,25.63
2024-01-16T07:29:34.218Z,28.25
2024-01-16T07:32:33.576Z,25.42
2024-01-16T07:35:31.748Z,24.67
2024-01-16T07:38:30.028Z,24.67
2024-01-16T07:41:28.116Z,27.17
2024-01-16T07:44:26.462Z,25.35
2024-01-16T07:47:24.563Z,24.85
2024-01-16T07:50:22.714Z,27.40
2024-01-16T07:53:20.870Z,25.45
2024-01-16T07:56:19.162Z,25.80
2024-01-16T07:59:17.272Z,24.80
2024-01-16T08:02:15.450Z,22.38
2024-01-16T08:05:13.926Z,23.10
2024-01-16T08:08:12.635Z,25.25
2024-01-16T08:11:11.064Z,24.77
2024-01-16T08:14:10.168Z,21.95
2024-01-16T08:17:08.802Z,25.23
2024-01-16T08:20:08.022Z,26.88
2024-01-16T08:23:06.066Z,28.38
2024-01-16T08:26:04.331Z,28.40
2024-01-16T08:29:02.404Z,28.20
2024-01-16T08:32:00.542Z,28.58
2024-01-16T08:34:58.783Z,29.10
2024-01-16T08:37:56.929Z,29.23
2024-01-16T08:40:54.922Z,29.50
2024-01-16T08:43:53.091Z,31.00
2024-01-16T08:46:51.800Z,30.83
2024-01-16T08:49:50.141Z,32.10
2024-01-16T08:52:48.463Z,32.83
2024-01-16T08:55:46.667Z,33.55
2024-01-16T08:58:44.762Z,30.85
2024-01-16T09:01:43.850Z,34.58
2024-01-16T09:04:42.011Z,33.58
2024-01-16T09:07:40.243Z,30.52
2024-01-16T09:10:38.271Z,34.60
2024-01-16T09:13:36.436Z,32.90
2024-01-16T09:16:34.516Z,31.83
2024-01-16T09:19:32.739Z,30.40
2024-01-16T09:22:30.885Z,33.50
2024-01-16T09:25:31.558Z,30.80
2024-01-16T09:28:30.604Z,32.03
2024-01-16T09:31:28.843Z,31.67
2024-01-16T09:34:26.920Z,31.27
2024-01-16T09:37:25.926Z,29.77
2024-01-16T09:40:24.317Z,32.53
2024-01-16T09:43:22.578Z,34.63
2024-01-16T09:46:26.383Z,31.75
2024-01-16T09:49:25.971Z,30.80
2024-01-16T09:52:24.273Z,33.55
2024-01-16T09:55:23.086Z,31.00
2024-01-16T09:58:25.605Z,30.08
2024-01-16T10:01:25.144Z,31.33
2024-01-16T10:04:23.298Z,33.35
2024-01-16T10:07:27.581Z,32.63
2024-01-16T10:10:38.636Z,32.70
2024-01-16T10:13:46.359Z,31.38
2024-01-16T10:17:18.830Z,33.47
2024-01-16T10:20:19.119Z,32.60
2024-01-16T10:23:25.817Z,33.78
2024-01-16T10:26:24.087Z,33.80
2024-01-16T10:29:25.634Z,34.58
2024-01-16T10:32:35.667Z,35.05
2024-01-16T10:35:33.950Z,36.55
2024-01-16T10:38:33.914Z,35.67
2024-01-16T10:41:31.978Z,34.53
2024-01-16T10:44:33.338Z,34.90
2024-01-16T10:47:31.508Z,36.63
2024-01-16T10:50:35.101Z,34.65
2024-01-16T10:53:36.018Z,33.50
2024-01-16T10:56:34.509Z,35.60
2024-01-16T10:59:39.920Z,33.72
2024-01-16T11:02:46.723Z,34.70
2024-01-16T11:05:53.726Z,32.25
2024-01-16T11:08:53.292Z,32.65
2024-01-16T11:11:55.874Z,35.67
2024-01-16T11:17:58.768Z,33.30
2024-01-16T11:21:06.061Z,34.80
2024-01-16T11:24:07.297Z,33.67
2024-01-16T11:27:07.264Z,33.70
2024-01-16T11:30:08.755Z,34.63
2024-01-16T11:33:07.507Z,33.00
2024-01-16T11:36:05.879Z,35.20
2024-01-16T11:39:04.286Z,32.20
2024-01-16T11:42:04.589Z,36.85
2024-01-16T11:45:02.855Z,34.07
2024-01-16T11:48:17.738Z,35.13
2024-01-16T11:51:25.697Z,34.78
2024-01-16T11:54:24.377Z,35.43
2024-01-16T11:57:39.569Z,34.40
2024-01-16T12:00:39.749Z,31.35
2024-01-16T12:03:37.936Z,34.85
2024-01-16T12:06:37.857Z,34.58
2024-01-16T12:09:36.113Z,31.65
2024-01-16T12:12:34.974Z,33.60
2024-01-16T12:15:33.573Z,31.55
2024-01-16T12:18:40.416Z,32.03
2024-01-16T12:21:45.731Z,31.17
2024-01-16T12:24:44.308Z,33.55
2024-01-16T12:27:42.526Z,35.15
2024-01-16T12:30:40.629Z,35.63
2024-01-16T12:33:40.154Z,36.47
2024-01-16T12:36:39.977Z,34.65
2024-01-16T12:39:39.301Z,37.10
2024-01-16T12:42:37.487Z,37.55
2024-01-16T12:45:36.286Z,38.77
2024-01-16T12:48:34.538Z,38.45
2024-01-16T12:51:32.859Z,37.20
2024-01-16T12:54:30.954Z,38.58
2024-01-16T12:57:29.353Z,38.00
2024-01-16T13:00:27.694Z,37.42
2024-01-16T13:03:28.827Z,37.40
2024-01-16T13:06:26.977Z,38.88
2024-01-16T13:09:25.530Z,35.77
2024-01-16T13:12:23.624Z,33.42
2024-01-16T13:15:21.982Z,34.77
2024-01-16T13:18:23.704Z,35.25
2024-01-16T13:21:22.002Z,32.40
2024-01-16T13:24:23.359Z,35.38
2024-01-16T13:27:21.657Z,33.13
2024-01-16T13:30:21.931Z,30.08
2024-01-16T13:33:20.975Z,32.58
2024-01-16T13:36:33.543Z,30.40
2024-01-16T13:39:40.138Z,32.67
2024-01-16T13:42:38.969Z,31.85
2024-01-16T13:45:37.724Z,28.50
2024-01-16T13:48:36.283Z,29.03
2024-01-16T13:51:34.492Z,30.38
2024-01-16T13:54:32.831Z,27.75
2024-01-16T13:57:31.111Z,33.37
2024-01-16T14:00:29.289Z,28.33
2024-01-16T14:03:28.561Z,30.30
2024-01-16T14:06:47.789Z,31.80
2024-01-16T14:09:46.148Z,29.97
2024-01-16T14:12:46.809Z,33.20
2024-01-16T14:15:45.209Z,29.73
2024-01-16T14:18:43.595Z,28.23
2024-01-16T14:21:41.847Z,29.83
2024-01-16T14:24:39.935Z,28.23
2024-01-16T14:27:41.179Z,29.60
2024-01-16T14:30:43.164Z,31.60
2024-01-16T14:33:42.398Z,31.25
2024-01-16T14:36:41.581Z,27.92
2024-01-16T14:39:39.773Z,27.70
2024-01-16T14:42:37.957Z,29.77
2024-01-16T14:45:36.164Z,26.13
2024-01-16T14:48:34.347Z,29.02
2024-01-16T14:51:32.752Z,28.40
2024-01-16T14:54:31.217Z,28.30
2024-01-16T14:57:33.412Z,28.67
2024-01-16T15:00:32.688Z,30.10
2024-01-16T15:03:30.925Z,30.47
2024-01-16T15:06:29.450Z,28.97
2024-01-16T15:09:27.693Z,29.43
2024-01-16T15:12:25.719Z,27.30
2024-01-16T15:15:25.343Z,30.13
2024-01-16T15:18:23.715Z,29.00
2024-01-16T15:21:23.199Z,28.70
2024-01-16T15:24:27.955Z,29.77
2024-01-16T15:27:26.093Z,29.57
2024-01-16T15:30:34.677Z,29.83
2024-01-16T15:33:32.912Z,29.37
2024-01-16T15:36:32.041Z,28.27
2024-01-16T15:39:30.615Z,31.87
2024-01-16T15:42:29.220Z,30.23
2024-01-16T15:45:29.191Z,29.63
2024-01-16T15:48:34.546Z,29.00
2024-01-16T15:51:33.408Z,27.92
2024-01-16T15:54:32.477Z,29.80
2024-01-16T15:57:31.033Z,29.60
2024-01-16T16:00:29.399Z,29.42
2024-01-16T16:03:28.178Z,27.30
2024-01-16T16:06:26.629Z,29.35
2024-01-16T16:09:27.481Z,29.38
2024-01-16T16:12:25.623Z,31.30
2024-01-16T16:15:25.134Z,32.90
2024-01-16T16:18:24.992Z,30.80
2024-01-16T16:21:23.735Z,31.07
2024-01-16T16:24:22.161Z,30.23
2024-01-16T16:27:29.228Z,30.40
2024-01-16T16:30:28.585Z,29.40
2024-01-16T16:33:27.084Z,29.90
2024-01-16T16:36:25.301Z,29.10
2024-01-16T16:39:24.446Z,28.47
2024-01-16T16:42:22.809Z,27.23
2024-01-16T16:45:21.194Z,26.57
2024-01-16T16:48:20.026Z,28.70
2024-01-16T16:51:21.433Z,26.57
2024-01-16T16:54:19.730Z,28.23
2024-01-16T16:57:18.084Z,27.45
2024-01-16T17:00:16.459Z,31.07
2024-01-16T17:03:14.784Z,27.08
2024-01-16T17:06:13.353Z,26.73
2024-01-16T17:09:13.463Z,29.60
2024-01-16T17:12:12.078Z,28.60
2024-01-16T17:15:10.639Z,28.27
2024-01-16T17:18:10.041Z,27.90
2024-01-16T17:21:09.190Z,28.60
2024-01-16T17:24:08.512Z,28.17
2024-01-16T17:27:07.233Z,29.10
2024-01-16T17:30:07.244Z,28.30
2024-01-16T17:33:08.174Z,27.40
2024-01-16T17:36:12.282Z,29.63
2024-01-16T17:39:11.455Z,26.67
2024-01-16T17:42:10.968Z,28.23
2024-01-16T17:45:10.752Z,27.40
2024-01-16T17:48:09.869Z,27.17
2024-01-16T17:51:10.289Z,27.10
2024-01-16T17:54:08.605Z,27.77
2024-01-16T17:57:08.060Z,27.63
2024-01-16T18:00:07.793Z,26.02
2024-01-16T18:03:06.621Z,25.87
2024-01-16T18:06:08.348Z,25.33
2024-01-16T18:09:11.655Z,25.80
2024-01-16T18:12:12.645Z,25.30
2024-01-16T18:15:15.511Z,25.75
2024-01-16T18:18:15.140Z,25.45
2024-01-16T18:21:14.108Z,24.07
2024-01-16T18:24:13.844Z,24.23
2024-01-16T18:27:12.193Z,25.60
2024-01-16T18:30:10.842Z,24.70
2024-01-16T18:33:09.290Z,24.77
2024-01-16T18:36:09.364Z,25.48
2024-01-16T18:39:14.173Z,25.30
2024-01-16T18:42:12.248Z,26.27
2024-01-16T18:45:10.674Z,26.03
2024-01-16T18:48:09.023Z,25.80
2024-01-16T18:51:07.319Z,24.93
2024-01-16T18:54:06.536Z,24.83
2024-01-16T18:57:06.086Z,23.80
2024-01-16T19:00:04.477Z,23.80
2024-01-16T19:03:02.829Z,24.67
2024-01-16T19:06:01.048Z,24.30
2024-01-16T19:09:00.196Z,22.03
2024-01-16T19:11:58.494Z,23.10
2024-01-16T19:14:56.768Z,22.27
2024-01-16T19:17:54.911Z,19.90
2024-01-16T19:20:54.236Z,21.10
2024-01-16T19:23:53.317Z,21.50
2024-01-16T19:26:51.681Z,21.80
2024-01-16T19:29:50.441Z,20.63
2024-01-16T19:32:50.089Z,20.03
2024-01-16T19:35:50.612Z,19.33
2024-01-16T19:38:48.871Z,19.13
2024-01-16T19:41:47.295Z,19.07
2024-01-16T19:44:50.166Z,17.93
2024-01-16T19:47:50.906Z,18.33
2024-01-16T19:50:49.158Z,16.43
2024-01-16T19:53:47.545Z,17.00
2024-01-16T19:56:46.698Z,16.97
2024-01-16T19:59:44.793Z,16.10
2024-01-16T20:02:44.606Z,17.10
2024-01-16T20:05:44.258Z,13.85
2024-01-16T20:08:42.541Z,14.03
2024-01-16T20:11:40.665Z,13.80
2024-01-16T20:14:42.396Z,13.90
2024-01-16T20:17:43.141Z,13.80
2024-01-16T20:20:41.474Z,13.20
2024-01-16T20:23:39.865Z,14.30
2024-01-16T20:26:38.823Z,12.53
2024-01-16T20:29:36.917Z,11.83
2024-01-16T20:32:35.524Z,10.93
2024-01-16T20:35:33.677Z,11.17
2024-01-16T20:38:31.966Z,12.00
2024-01-16T20:41:30.108Z,11.10
2024-01-16T20:44:34.348Z,10.80
2024-01-16T20:47:32.538Z,10.77
2024-01-16T20:50:30.830Z,10.53
2024-01-16T20:53:30.116Z,10.67
2024-01-16T20:56:28.495Z,9.90
2024-01-16T20:59:26.575Z,9.10
2024-01-16T21:02:25.048Z,9.33
2024-01-16T21:05:23.397Z,10.07
2024-01-16T21:08:22.001Z,9.10
2024-01-16T21:11:20.128Z,9.27
2024-01-16T21:14:18.299Z,9.00
2024-01-16T21:17:16.340Z,8.82
2024-01-16T21:20:14.578Z,8.93
2024-01-16T21:23:13.116Z,9.03
2024-01-16T21:26:12.116Z,8.90
2024-01-16T21:29:10.137Z,8.17
2024-01-16T21:32:08.288Z,9.30
2024-01-16T21:35:08.209Z,8.30
2024-01-16T21:38:06.420Z,8.50
2024-01-16T21:41:08.580Z,8.67
2024-01-16T21:44:07.188Z,8.43
2024-01-16T21:47:05.346Z,8.47
2024-01-16T21:50:07.010Z,8.33
2024-01-16T21:53:06.447Z,9.35
2024-01-16T21:56:06.658Z,9.10
2024-01-16T21:59:05.953Z,9.07
2024-01-16T22:02:04.213Z,8.70
2024-01-16T22:05:02.435Z,9.10
2024-01-16T22:08:01.132Z,9.60
2024-01-16T22:10:59.399Z,10.60
2024-01-16T22:13:57.580Z,9.33
2024-01-16T22:16:55.803Z,9.57
2024-01-16T22:19:54.441Z,10.23
2024-01-16T22:22:53.122Z,9.10
2024-01-16T22:25:51.304Z,9.50
2024-01-16T22:28:49.318Z,9.20
2024-01-16T22:31:47.839Z,8.93
2024-01-16T22:34:46.321Z,9.80
2024-01-16T22:37:47.793Z,9.80
2024-01-16T22:40:46.822Z,9.50
2024-01-16T22:43:47.043Z,9.30
2024-01-16T22:46:45.541Z,9.73
2024-01-16T22:49:44.068Z,9.97
2024-01-16T22:52:42.479Z,9.73
2024-01-16T22:55:40.662Z,11.03
2024-01-16T22:58:43.616Z,10.33
2024-01-16T23:01:41.761Z,12.13
2024-01-16T23:04:39.903Z,11.23
2024-01-16T23:07:38.101Z,10.27
2024-01-16T23:10:36.463Z,11.23
2024-01-16T23:13:35.908Z,11.37
2024-01-16T23:16:34.274Z,11.83
2024-01-16T23:19:32.459Z,11.57
2024-01-16T23:22:31.848Z,10.97
2024-01-16T23:25:29.977Z,11.30
2024-01-16T23:28:28.002Z,12.90
2024-01-16T23:31:26.331Z,10.77
2024-01-16T23:34:24.963Z,12.07
2024-01-16T23:37:27.209Z,10.90
2024-01-16T23:43:24.732Z,9.73
2024-01-16T23:46:23.302Z,10.27
2024-01-16T23:49:22.772Z,10.53
2024-01-16T23:52:20.798Z,10.30
2024-01-16T23:55:19.744Z,10.57
2024-01-16T23:58:17.752Z,10.53
